createdAt,value
2023-04-27T00:00:11.799Z,58.28
2023-04-27T00:01:14.090Z,58.48
2023-04-27T00:02:16.504Z,58.30
2023-04-27T00:03:18.388Z,58.13
2023-04-27T00:04:21.304Z,58.20
2023-04-27T00:05:23.382Z,58.28
2023-04-27T00:06:26.583Z,58.46
2023-04-27T00:07:28.351Z,58.57
2023-04-27T00:08:29.816Z,58.37
2023-04-27T00:09:31.451Z,58.09
2023-04-27T00:10:33.001Z,58.15
2023-04-27T00:11:34.562Z,57.92
2023-04-27T00:12:36.158Z,58.63
2023-04-27T00:13:37.994Z,58.08
2023-04-27T00:14:39.504Z,58.65
2023-04-27T00:15:41.156Z,58.56
2023-04-27T00:16:42.761Z,58.54
2023-04-27T00:17:44.459Z,58.64
2023-04-27T00:18:46.599Z,58.42
2023-04-27T00:19:48.590Z,58.99
2023-04-27T00:20:50.084Z,58.94
2023-04-27T00:21:51.786Z,59.07
2023-04-27T00:22:53.363Z,59.16
2023-04-27T00:23:55.411Z,59.97
2023-04-27T00:24:57.157Z,59.58
2023-04-27T00:25:58.634Z,59.52
2023-04-27T00:27:00.525Z,59.65
2023-04-27T00:28:02.093Z,59.41
2023-04-27T00:29:04.029Z,59.51
2023-04-27T00:30:06.299Z,59.20
2023-04-27T00:31:07.842Z,58.79
2023-04-27T00:32:12.310Z,59.13
2023-04-27T00:33:14.195Z,58.43
2023-04-27T00:34:15.923Z,59.00
2023-04-27T00:35:17.636Z,58.98
2023-04-27T00:36:19.101Z,59.22
2023-04-27T00:37:20.884Z,59.42
2023-04-27T00:38:22.652Z,59.69
2023-04-27T00:39:24.096Z,59.72
2023-04-27T00:40:25.649Z,59.94
2023-04-27T00:41:27.105Z,59.77
2023-04-27T00:42:28.557Z,59.58
2023-04-27T00:43:30.842Z,59.84
2023-04-27T00:44:32.612Z,60.05
2023-04-27T00:45:41.968Z,60.63
2023-04-27T00:46:43.458Z,60.50
2023-04-27T00:47:45.967Z,60.28
2023-04-27T00:48:47.708Z,60.52
2023-04-27T00:49:49.514Z,60.27
2023-04-27T00:50:51.002Z,59.69
2023-04-27T00:51:52.442Z,59.65
2023-04-27T00:52:54.145Z,59.94
2023-04-27T00:53:58.078Z,59.24
2023-04-27T00:55:02.004Z,59.58
2023-04-27T00:56:05.597Z,59.63
2023-04-27T00:57:07.891Z,60.22
2023-04-27T00:58:09.480Z,59.72
2023-04-27T00:59:11.098Z,60.02
2023-04-27T01:00:13.580Z,59.32
2023-04-27T01:01:15.122Z,59.11
2023-04-27T01:02:16.883Z,59.94
2023-04-27T01:03:18.629Z,59.30
2023-04-27T01:04:20.417Z,59.75
2023-04-27T01:05:22.106Z,59.49
2023-04-27T01:06:23.587Z,59.78
2023-04-27T01:07:26.732Z,60.14
2023-04-27T01:08:29.207Z,60.05
2023-04-27T01:09:30.755Z,59.43
2023-04-27T01:10:32.839Z,59.82
2023-04-27T01:11:34.366Z,59.74
2023-04-27T01:12:36.353Z,59.70
2023-04-27T01:13:37.793Z,60.06
2023-04-27T01:14:39.234Z,59.98
2023-04-27T01:15:41.198Z,60.15
2023-04-27T01:16:42.693Z,59.86
2023-04-27T01:17:44.531Z,60.42
2023-04-27T01:18:47.071Z,60.10
2023-04-27T01:19:49.918Z,60.45
2023-04-27T01:20:51.368Z,59.77
2023-04-27T01:21:52.806Z,60.23
2023-04-27T01:22:54.658Z,60.53
2023-04-27T01:23:56.123Z,60.11
2023-04-27T01:24:57.592Z,60.06
2023-04-27T01:25:58.988Z,60.32
2023-04-27T01:27:01.754Z,60.01
2023-04-27T01:28:03.639Z,60.09
2023-04-27T01:29:05.117Z,60.52
2023-04-27T01:30:08.464Z,60.83
2023-04-27T01:31:11.598Z,60.79
2023-04-27T01:32:13.121Z,60.46
2023-04-27T01:33:15.072Z,60.57
2023-04-27T01:34:16.778Z,60.84
2023-04-27T01:35:18.326Z,60.54
2023-04-27T01:36:19.784Z,60.91
2023-04-27T01:37:21.882Z,60.82
2023-04-27T01:38:24.202Z,60.05
2023-04-27T01:39:26.211Z,59.93
2023-04-27T01:40:27.763Z,60.38
2023-04-27T01:41:29.220Z,60.37
2023-04-27T01:42:30.757Z,60.71
2023-04-27T01:43:32.511Z,60.29
2023-04-27T01:44:34.032Z,60.90
2023-04-27T01:45:35.489Z,60.36
2023-04-27T01:46:36.985Z,60.60
2023-04-27T01:47:38.751Z,60.41
2023-04-27T01:48:41.156Z,60.52
2023-04-27T01:49:43.231Z,60.74
2023-04-27T01:50:44.658Z,60.70
2023-04-27T01:51:46.109Z,60.82
2023-04-27T01:52:48.581Z,60.81
2023-04-27T01:53:50.199Z,61.12
2023-04-27T01:54:52.004Z,60.43
2023-04-27T01:55:53.650Z,60.62
2023-04-27T01:56:55.124Z,60.88
2023-04-27T01:57:56.924Z,60.97
2023-04-27T01:58:58.434Z,60.83
2023-04-27T01:59:59.862Z,60.61
2023-04-27T02:01:01.480Z,60.66
2023-04-27T02:02:03.613Z,60.39
2023-04-27T02:03:05.475Z,60.56
2023-04-27T02:04:07.318Z,60.69
2023-04-27T02:05:09.225Z,60.41
2023-04-27T02:06:10.745Z,61.07
2023-04-27T02:07:12.511Z,61.14
2023-04-27T02:08:14.558Z,60.89
2023-04-27T02:09:16.401Z,60.74
2023-04-27T02:10:18.141Z,61.29
2023-04-27T02:11:19.775Z,61.15
2023-04-27T02:12:21.984Z,61.57
2023-04-27T02:13:23.520Z,61.76
2023-04-27T02:14:24.947Z,61.71
2023-04-27T02:15:28.916Z,61.12
2023-04-27T02:16:30.713Z,61.53
2023-04-27T02:17:34.799Z,61.52
2023-04-27T02:18:36.346Z,61.62
2023-04-27T02:19:37.794Z,61.49
2023-04-27T02:20:39.278Z,61.87
2023-04-27T02:21:41.078Z,62.34
2023-04-27T02:22:43.845Z,61.95
2023-04-27T02:23:45.457Z,61.63
2023-04-27T02:24:46.907Z,61.30
2023-04-27T02:25:48.422Z,60.91
2023-04-27T02:26:49.967Z,61.24
2023-04-27T02:27:51.431Z,61.56
2023-04-27T02:28:53.187Z,61.51
2023-04-27T02:29:55.180Z,61.51
2023-04-27T02:30:57.107Z,61.32
2023-04-27T02:31:59.000Z,61.05
2023-04-27T02:33:03.475Z,61.23
2023-04-27T02:34:04.962Z,61.57
2023-04-27T02:35:07.013Z,61.70
2023-04-27T02:36:09.015Z,61.40
2023-04-27T02:37:11.085Z,61.26
2023-04-27T02:38:13.536Z,61.96
2023-04-27T02:39:15.180Z,61.88
2023-04-27T02:40:16.971Z,61.58
2023-04-27T02:41:18.434Z,61.90
2023-04-27T02:42:19.982Z,61.51
2023-04-27T02:43:21.956Z,61.84
2023-04-27T02:44:23.410Z,61.98
2023-04-27T02:45:24.860Z,61.94
2023-04-27T02:46:27.469Z,61.79
2023-04-27T02:47:29.089Z,62.10
2023-04-27T02:48:31.043Z,62.45
2023-04-27T02:49:32.507Z,62.46
2023-04-27T02:50:34.043Z,62.64
2023-04-27T02:51:35.530Z,62.43
2023-04-27T02:52:37.040Z,62.24
2023-04-27T02:53:38.519Z,62.45
2023-04-27T02:54:40.032Z,62.83
2023-04-27T02:55:47.884Z,62.84
2023-04-27T02:56:49.358Z,62.38
2023-04-27T02:57:51.464Z,62.71
2023-04-27T02:58:52.991Z,62.53
2023-04-27T02:59:54.493Z,62.92
2023-04-27T03:00:57.022Z,62.94
2023-04-27T03:01:58.845Z,62.86
2023-04-27T03:03:00.797Z,62.88
2023-04-27T03:04:02.625Z,63.10
2023-04-27T03:05:05.535Z,63.16
2023-04-27T03:06:07.202Z,62.96
2023-04-27T03:07:08.841Z,62.53
2023-04-27T03:08:10.370Z,62.25
2023-04-27T03:09:12.963Z,62.47
2023-04-27T03:10:14.674Z,62.48
2023-04-27T03:11:16.477Z,62.15
2023-04-27T03:12:17.953Z,61.98
2023-04-27T03:13:19.477Z,62.35
2023-04-27T03:14:20.913Z,61.78
2023-04-27T03:15:22.679Z,61.88
2023-04-27T03:16:24.131Z,61.86
2023-04-27T03:17:25.827Z,61.83
2023-04-27T03:18:27.302Z,61.91
2023-04-27T03:19:29.050Z,63.14
2023-04-27T03:20:30.500Z,62.59
2023-04-27T03:21:32.202Z,62.71
2023-04-27T03:22:33.651Z,62.22
2023-04-27T03:23:35.519Z,62.16
2023-04-27T03:24:36.995Z,62.54
2023-04-27T03:25:38.533Z,62.30
2023-04-27T03:26:40.028Z,62.60
2023-04-27T03:27:43.334Z,61.74
2023-04-27T03:28:44.909Z,62.17
2023-04-27T03:29:46.376Z,61.76
2023-04-27T03:30:47.891Z,61.75
2023-04-27T03:31:49.348Z,62.49
2023-04-27T03:32:50.895Z,62.13
2023-04-27T03:33:52.368Z,62.55
2023-04-27T03:34:53.849Z,62.09
2023-04-27T03:35:57.321Z,62.10
2023-04-27T03:36:58.884Z,62.40
2023-04-27T03:38:00.301Z,61.97
2023-04-27T03:39:01.928Z,62.47
2023-04-27T03:40:07.372Z,62.62
2023-04-27T03:41:09.244Z,62.24
2023-04-27T03:42:10.746Z,62.51
2023-04-27T03:43:12.184Z,62.37
2023-04-27T03:44:13.744Z,62.32
2023-04-27T03:45:16.634Z,62.52
2023-04-27T03:46:18.507Z,62.55
2023-04-27T03:47:20.001Z,62.44
2023-04-27T03:48:22.459Z,62.79
2023-04-27T03:49:23.897Z,63.22
2023-04-27T03:50:25.390Z,62.65
2023-04-27T03:51:27.546Z,62.58
2023-04-27T03:52:28.968Z,63.10
2023-04-27T03:53:30.656Z,62.49
2023-04-27T03:54:32.255Z,62.85
2023-04-27T03:55:33.849Z,62.78
2023-04-27T03:56:35.652Z,62.40
2023-04-27T03:57:37.069Z,62.77
2023-04-27T03:58:38.550Z,63.19
2023-04-27T03:59:40.009Z,63.40
2023-04-27T04:00:41.493Z,63.05
2023-04-27T04:01:43.338Z,63.05
2023-04-27T04:02:45.675Z,62.27
2023-04-27T04:03:48.302Z,63.16
2023-04-27T04:04:50.124Z,62.74
2023-04-27T04:05:53.729Z,63.07
2023-04-27T04:06:55.252Z,62.94
2023-04-27T04:07:57.688Z,62.91
2023-04-27T04:08:59.282Z,62.44
2023-04-27T04:10:00.801Z,62.94
2023-04-27T04:11:02.269Z,63.41
2023-04-27T04:12:04.042Z,63.09
2023-04-27T04:13:05.546Z,62.88
2023-04-27T04:14:06.947Z,63.17
2023-04-27T04:15:09.263Z,62.96
2023-04-27T04:16:11.330Z,62.59
2023-04-27T04:17:12.835Z,63.33
2023-04-27T04:18:14.389Z,63.77
2023-04-27T04:19:16.169Z,62.99
2023-04-27T04:20:18.315Z,63.20
2023-04-27T04:21:20.140Z,63.61
2023-04-27T04:22:21.575Z,63.80
2023-04-27T04:23:23.633Z,63.78
2023-04-27T04:24:25.169Z,63.54
2023-04-27T04:25:26.822Z,62.89
2023-04-27T04:26:28.857Z,62.63
2023-04-27T04:27:31.594Z,62.88
2023-04-27T04:28:33.194Z,62.53
2023-04-27T04:29:34.736Z,62.54
2023-04-27T04:30:36.583Z,62.98
2023-04-27T04:31:38.263Z,62.42
2023-04-27T04:32:40.413Z,62.62
2023-04-27T04:33:42.178Z,62.78
2023-04-27T04:34:43.629Z,61.93
2023-04-27T04:35:45.522Z,62.41
2023-04-27T04:36:47.369Z,62.72
2023-04-27T04:37:49.005Z,62.51
2023-04-27T04:38:50.451Z,62.72
2023-04-27T04:39:52.319Z,62.63
2023-04-27T04:40:54.198Z,62.61
2023-04-27T04:41:55.751Z,62.72
2023-04-27T04:42:57.188Z,63.02
2023-04-27T04:43:59.718Z,63.05
2023-04-27T04:45:01.196Z,63.46
2023-04-27T04:46:03.148Z,63.22
2023-04-27T04:47:06.382Z,62.83
2023-04-27T04:48:08.725Z,63.07
2023-04-27T04:49:10.408Z,63.22
2023-04-27T04:50:13.157Z,63.21
2023-04-27T04:51:14.658Z,63.16
2023-04-27T04:52:16.446Z,63.04
2023-04-27T04:53:18.360Z,62.97
2023-04-27T04:54:20.147Z,62.48
2023-04-27T04:55:21.910Z,62.73
2023-04-27T04:56:23.363Z,62.16
2023-04-27T04:57:25.046Z,62.05
2023-04-27T04:58:26.584Z,62.38
2023-04-27T04:59:29.043Z,62.33
2023-04-27T05:00:31.732Z,62.13
2023-04-27T05:01:33.267Z,61.93
2023-04-27T05:02:35.056Z,62.26
2023-04-27T05:03:37.041Z,62.14
2023-04-27T05:04:38.832Z,62.25
2023-04-27T05:05:40.671Z,62.51
2023-04-27T05:06:42.103Z,62.36
2023-04-27T05:07:50.310Z,62.31
2023-04-27T05:08:52.082Z,61.51
2023-04-27T05:09:53.693Z,62.09
2023-04-27T05:10:55.524Z,61.87
2023-04-27T05:11:57.011Z,62.27
2023-04-27T05:12:58.574Z,62.75
2023-04-27T05:14:00.078Z,62.03
2023-04-27T05:15:02.008Z,62.05
2023-04-27T05:16:07.345Z,62.36
2023-04-27T05:17:08.894Z,62.33
2023-04-27T05:18:10.746Z,62.33
2023-04-27T05:19:12.596Z,62.51
2023-04-27T05:20:15.950Z,62.17
2023-04-27T05:21:20.772Z,62.39
2023-04-27T05:22:22.224Z,62.33
2023-04-27T05:23:23.869Z,62.81
2023-04-27T05:24:26.415Z,61.83
2023-04-27T05:25:34.047Z,61.53
2023-04-27T05:26:35.862Z,62.03
2023-04-27T05:27:37.375Z,61.84
2023-04-27T05:28:38.878Z,60.75
2023-04-27T05:29:41.072Z,60.86
2023-04-27T05:30:42.656Z,60.46
2023-04-27T05:31:44.211Z,61.01
2023-04-27T05:32:46.015Z,61.01
2023-04-27T05:33:47.577Z,61.71
2023-04-27T05:34:49.649Z,61.52
2023-04-27T05:35:51.794Z,61.85
2023-04-27T05:36:53.234Z,61.40
2023-04-27T05:37:55.047Z,61.56
2023-04-27T05:38:56.588Z,61.16
2023-04-27T05:39:58.089Z,60.75
2023-04-27T05:41:00.122Z,60.72
2023-04-27T05:42:03.063Z,60.62
2023-04-27T05:43:05.736Z,60.74
2023-04-27T05:44:07.477Z,60.92
2023-04-27T05:45:09.339Z,60.17
2023-04-27T05:46:15.049Z,60.06
2023-04-27T05:47:16.720Z,60.51
2023-04-27T05:48:18.831Z,60.47
2023-04-27T05:49:20.548Z,60.10
2023-04-27T05:50:22.340Z,59.95
2023-04-27T05:51:23.907Z,59.45
2023-04-27T05:52:31.228Z,59.24
2023-04-27T05:53:34.905Z,59.05
2023-04-27T05:54:36.654Z,59.13
2023-04-27T05:55:39.087Z,58.81
2023-04-27T05:56:40.546Z,59.30
2023-04-27T05:57:42.118Z,58.49
2023-04-27T05:58:43.633Z,58.67
2023-04-27T05:59:45.110Z,57.92
2023-04-27T06:00:47.407Z,57.45
2023-04-27T06:01:49.232Z,57.90
2023-04-27T06:02:51.566Z,57.97
2023-04-27T06:03:53.276Z,57.78
2023-04-27T06:04:54.852Z,57.68
2023-04-27T06:05:59.033Z,58.01
2023-04-27T06:07:01.285Z,57.80
2023-04-27T06:08:03.036Z,57.92
2023-04-27T06:09:04.505Z,56.97
2023-04-27T06:10:06.791Z,56.94
2023-04-27T06:11:08.331Z,57.48
2023-04-27T06:12:09.858Z,57.61
2023-04-27T06:13:11.771Z,57.68
2023-04-27T06:14:13.780Z,57.46
2023-04-27T06:15:15.487Z,57.15
2023-04-27T06:16:17.446Z,56.82
2023-04-27T06:17:19.142Z,57.86
2023-04-27T06:18:20.755Z,57.56
2023-04-27T06:19:22.290Z,57.32
2023-04-27T06:20:23.807Z,56.83
2023-04-27T06:21:25.581Z,57.12
2023-04-27T06:22:27.292Z,57.16
2023-04-27T06:23:28.847Z,56.21
2023-04-27T06:24:30.401Z,55.92
2023-04-27T06:25:31.996Z,56.47
2023-04-27T06:26:33.997Z,56.48
2023-04-27T06:27:35.677Z,56.32
2023-04-27T06:28:46.199Z,56.74
2023-04-27T06:29:47.718Z,56.64
2023-04-27T06:30:49.311Z,56.59
2023-04-27T06:31:51.355Z,56.93
2023-04-27T06:32:52.954Z,56.64
2023-04-27T06:33:54.513Z,56.17
2023-04-27T06:34:56.619Z,56.46
2023-04-27T06:35:58.525Z,56.57
2023-04-27T06:37:06.509Z,55.92
2023-04-27T06:38:08.259Z,56.17
2023-04-27T06:39:09.793Z,55.44
2023-04-27T06:40:11.668Z,56.12
2023-04-27T06:41:13.442Z,55.73
2023-04-27T06:42:14.946Z,55.14
2023-04-27T06:43:16.633Z,54.51
2023-04-27T06:44:18.175Z,54.41
2023-04-27T06:45:19.784Z,55.64
2023-04-27T06:46:21.377Z,55.52
2023-04-27T06:47:23.172Z,55.17
2023-04-27T06:48:24.745Z,54.94
2023-04-27T06:49:26.780Z,54.49
2023-04-27T06:50:31.740Z,54.53
2023-04-27T06:51:33.904Z,54.92
2023-04-27T06:52:35.437Z,55.17
2023-04-27T06:53:36.933Z,55.50
2023-04-27T06:54:38.486Z,54.36
2023-04-27T06:55:43.079Z,54.76
2023-04-27T06:56:45.767Z,54.57
2023-04-27T06:57:47.261Z,54.53
2023-04-27T06:58:52.051Z,54.68
2023-04-27T06:59:53.678Z,54.79
2023-04-27T07:00:55.268Z,54.16
2023-04-27T07:01:56.953Z,54.30
2023-04-27T07:02:58.600Z,54.63
2023-04-27T07:04:00.297Z,54.93
2023-04-27T07:05:02.018Z,55.54
2023-04-27T07:06:03.719Z,55.25
2023-04-27T07:07:05.217Z,54.95
2023-04-27T07:08:08.739Z,55.06
2023-04-27T07:09:26.182Z,54.49
2023-04-27T07:10:28.963Z,54.36
2023-04-27T07:11:30.811Z,54.31
2023-04-27T07:12:32.693Z,54.44
2023-04-27T07:13:34.216Z,54.23
2023-04-27T07:14:36.279Z,54.16
2023-04-27T07:15:37.766Z,54.60
2023-04-27T07:16:39.624Z,53.94
2023-04-27T07:17:41.818Z,52.66
2023-04-27T07:18:44.281Z,52.84
2023-04-27T07:19:45.863Z,53.00
2023-04-27T07:20:47.775Z,53.38
2023-04-27T07:21:50.162Z,52.88
2023-04-27T07:22:51.884Z,52.94
2023-04-27T07:23:54.414Z,52.86
2023-04-27T07:24:57.463Z,52.64
2023-04-27T07:26:00.059Z,52.32
2023-04-27T07:27:03.685Z,52.70
2023-04-27T07:28:05.326Z,53.17
2023-04-27T07:29:18.932Z,52.79
2023-04-27T07:30:30.724Z,52.42
2023-04-27T07:31:33.540Z,52.23
2023-04-27T07:32:36.646Z,51.50
2023-04-27T07:33:38.163Z,50.88
2023-04-27T07:34:52.036Z,50.86
2023-04-27T07:35:55.037Z,51.42
2023-04-27T07:36:57.074Z,51.38
2023-04-27T07:38:01.651Z,51.34
2023-04-27T07:39:04.144Z,51.12
2023-04-27T07:40:14.441Z,50.39
2023-04-27T07:41:16.979Z,51.14
2023-04-27T07:42:19.328Z,50.75
2023-04-27T07:43:22.991Z,50.58
2023-04-27T07:44:24.501Z,50.42
2023-04-27T07:45:32.511Z,49.73
2023-04-27T07:46:34.576Z,49.02
2023-04-27T07:47:36.556Z,48.47
2023-04-27T07:48:37.991Z,47.55
2023-04-27T07:49:40.385Z,47.40
2023-04-27T07:50:42.302Z,47.00
2023-04-27T07:51:43.877Z,47.15
2023-04-27T07:52:45.554Z,47.09
2023-04-27T07:53:47.790Z,47.22
2023-04-27T07:54:49.493Z,47.00
2023-04-27T07:55:51.200Z,46.30
2023-04-27T07:56:53.701Z,46.08
2023-04-27T07:57:56.567Z,45.97
2023-04-27T07:58:58.076Z,46.29
2023-04-27T07:59:59.801Z,46.95
2023-04-27T08:01:01.653Z,47.00
2023-04-27T08:03:08.019Z,44.18
2023-04-27T08:04:10.082Z,44.43
2023-04-27T08:05:12.402Z,43.98
2023-04-27T08:06:14.966Z,43.81
2023-04-27T08:07:17.563Z,43.84
2023-04-27T08:08:19.787Z,44.24
2023-04-27T08:09:21.371Z,45.20
2023-04-27T08:10:23.421Z,44.84
2023-04-27T08:11:24.914Z,44.19
2023-04-27T08:12:26.325Z,43.61
2023-04-27T08:13:27.833Z,43.49
2023-04-27T08:14:29.411Z,41.97
2023-04-27T08:15:31.230Z,41.53
2023-04-27T08:16:32.977Z,41.46
2023-04-27T08:17:35.123Z,41.48
2023-04-27T08:18:36.716Z,41.34
2023-04-27T08:19:38.587Z,41.83
2023-04-27T08:20:40.365Z,41.91
2023-04-27T08:21:41.986Z,42.12
2023-04-27T08:22:44.090Z,42.80
2023-04-27T08:23:45.587Z,41.75
2023-04-27T08:24:47.078Z,41.72
2023-04-27T08:25:48.680Z,42.91
2023-04-27T08:26:50.201Z,43.77
2023-04-27T08:27:51.744Z,41.98
2023-04-27T08:28:53.277Z,41.98
2023-04-27T08:29:54.792Z,40.98
2023-04-27T08:30:56.882Z,40.39
2023-04-27T08:32:02.494Z,40.54
2023-04-27T08:33:04.207Z,39.51
2023-04-27T08:34:05.836Z,39.54
2023-04-27T08:35:07.803Z,39.29
2023-04-27T08:36:09.661Z,38.60
2023-04-27T08:37:11.428Z,38.02
2023-04-27T08:38:12.996Z,37.31
2023-04-27T08:39:14.886Z,36.80
2023-04-27T08:40:17.010Z,36.52
2023-04-27T08:41:22.703Z,35.91
2023-04-27T08:42:24.449Z,35.41
2023-04-27T08:43:26.065Z,35.35
2023-04-27T08:44:27.717Z,35.51
2023-04-27T08:45:29.522Z,35.69
2023-04-27T08:46:31.601Z,35.45
2023-04-27T08:47:42.604Z,35.41
2023-04-27T08:48:45.299Z,35.58
2023-04-27T08:49:47.237Z,35.72
2023-04-27T08:50:50.706Z,35.02
2023-04-27T08:51:52.188Z,34.78
2023-04-27T08:52:53.763Z,35.08
2023-04-27T08:53:57.267Z,34.70
2023-04-27T08:54:58.834Z,34.89
2023-04-27T08:56:01.847Z,35.40
2023-04-27T08:57:15.739Z,35.84
2023-04-27T08:58:17.287Z,35.27
2023-04-27T08:59:18.787Z,35.47
2023-04-27T09:00:20.889Z,35.15
2023-04-27T09:01:23.876Z,33.39
2023-04-27T09:02:27.227Z,33.60
2023-04-27T09:03:28.842Z,33.99
2023-04-27T09:04:38.517Z,34.04
2023-04-27T09:05:56.490Z,34.48
2023-04-27T09:07:17.585Z,35.59
2023-04-27T09:08:19.085Z,35.75
2023-04-27T09:09:24.553Z,35.71
2023-04-27T09:10:26.473Z,35.16
2023-04-27T09:11:29.626Z,34.63
2023-04-27T09:12:31.152Z,33.94
2023-04-27T09:13:36.806Z,32.75
2023-04-27T09:14:38.351Z,32.33
2023-04-27T09:15:46.282Z,34.09
2023-04-27T09:16:59.575Z,34.24
2023-04-27T09:18:01.353Z,34.20
2023-04-27T09:19:02.914Z,33.31
2023-04-27T09:20:13.739Z,33.19
2023-04-27T09:21:32.622Z,33.17
2023-04-27T09:22:46.100Z,33.20
2023-04-27T09:23:51.312Z,33.06
2023-04-27T09:24:53.482Z,33.13
2023-04-27T09:25:56.678Z,33.37
2023-04-27T09:27:00.614Z,33.13
2023-04-27T09:28:02.437Z,33.95
2023-04-27T09:29:03.981Z,35.69
2023-04-27T09:30:15.629Z,35.08
2023-04-27T09:31:17.492Z,34.35
2023-04-27T09:32:20.954Z,34.45
2023-04-27T09:33:36.171Z,34.27
2023-04-27T09:34:40.382Z,34.46
2023-04-27T09:35:42.182Z,35.57
2023-04-27T09:36:44.108Z,35.73
2023-04-27T09:37:45.684Z,35.08
2023-04-27T09:38:47.469Z,34.85
2023-04-27T09:39:50.283Z,34.63
2023-04-27T09:40:53.639Z,34.18
2023-04-27T09:41:56.184Z,33.77
2023-04-27T09:43:01.853Z,34.22
2023-04-27T09:44:03.775Z,34.80
2023-04-27T09:45:07.915Z,34.85
2023-04-27T09:46:09.565Z,34.54
2023-04-27T09:47:12.704Z,33.61
2023-04-27T09:48:14.316Z,33.71
2023-04-27T09:49:17.652Z,34.30
2023-04-27T09:50:19.877Z,34.15
2023-04-27T09:51:21.492Z,34.24
2023-04-27T09:52:23.032Z,35.19
2023-04-27T09:53:37.197Z,34.84
2023-04-27T09:54:40.128Z,33.93
2023-04-27T09:55:47.211Z,33.91
2023-04-27T09:57:12.107Z,33.07
2023-04-27T09:58:33.153Z,33.45
2023-04-27T09:59:55.191Z,32.57
2023-04-27T10:01:16.627Z,33.29
2023-04-27T10:02:25.162Z,33.99
2023-04-27T10:03:33.230Z,33.40
2023-04-27T10:05:02.815Z,32.78
2023-04-27T10:06:26.888Z,32.65
2023-04-27T10:07:29.160Z,33.32
2023-04-27T10:08:31.139Z,33.59
2023-04-27T10:09:40.088Z,33.19
2023-04-27T10:10:54.953Z,33.00
2023-04-27T10:11:59.346Z,34.06
2023-04-27T10:13:02.279Z,32.85
2023-04-27T10:14:07.464Z,32.39
2023-04-27T10:15:16.968Z,32.94
2023-04-27T10:16:19.402Z,33.46
2023-04-27T10:17:39.250Z,33.23
2023-04-27T10:18:55.648Z,32.99
2023-04-27T10:20:01.464Z,32.25
2023-04-27T10:21:12.471Z,32.54
2023-04-27T10:22:13.980Z,32.73
2023-04-27T10:23:26.388Z,32.57
2023-04-27T10:24:39.601Z,32.66
2023-04-27T10:25:42.056Z,32.34
2023-04-27T10:26:48.167Z,33.41
2023-04-27T10:27:55.295Z,33.59
2023-04-27T10:29:07.527Z,33.66
2023-04-27T10:30:11.466Z,34.60
2023-04-27T10:31:14.967Z,33.85
2023-04-27T10:32:31.333Z,32.73
2023-04-27T10:33:43.841Z,32.23
2023-04-27T10:34:47.586Z,32.62
2023-04-27T10:36:00.404Z,32.41
2023-04-27T10:37:12.572Z,31.88
2023-04-27T10:38:20.598Z,31.88
2023-04-27T10:39:39.657Z,31.86
2023-04-27T10:40:59.664Z,32.37
2023-04-27T10:42:01.422Z,31.82
2023-04-27T10:43:16.284Z,31.84
2023-04-27T10:44:20.058Z,31.70
2023-04-27T10:45:31.445Z,31.65
2023-04-27T10:46:36.103Z,31.43
2023-04-27T10:47:42.449Z,32.25
2023-04-27T10:48:44.894Z,32.53
2023-04-27T10:49:46.766Z,31.28
2023-04-27T10:50:51.755Z,30.57
2023-04-27T10:51:53.508Z,30.72
2023-04-27T10:53:01.063Z,29.95
2023-04-27T10:54:03.554Z,30.24
2023-04-27T10:55:16.352Z,30.62
2023-04-27T10:56:19.123Z,30.43
2023-04-27T10:57:20.647Z,30.53
2023-04-27T10:58:29.857Z,30.57
2023-04-27T10:59:49.848Z,31.68
2023-04-27T11:00:51.660Z,31.09
2023-04-27T11:01:53.177Z,30.21
2023-04-27T11:02:56.589Z,29.98
2023-04-27T11:04:00.144Z,30.01
2023-04-27T11:05:02.892Z,29.50
2023-04-27T11:06:06.042Z,28.21
2023-04-27T11:07:11.008Z,27.77
2023-04-27T11:08:17.515Z,28.64
2023-04-27T11:09:27.488Z,28.31
2023-04-27T11:10:29.447Z,28.78
2023-04-27T11:11:31.023Z,29.96
2023-04-27T11:12:32.993Z,29.99
2023-04-27T11:13:34.546Z,29.96
2023-04-27T11:14:37.010Z,29.71
2023-04-27T11:15:56.255Z,29.91
2023-04-27T11:16:58.718Z,30.43
2023-04-27T11:18:06.899Z,30.23
2023-04-27T11:19:08.426Z,30.30
2023-04-27T11:20:10.479Z,30.80
2023-04-27T11:21:14.268Z,30.93
2023-04-27T11:22:16.958Z,30.72
2023-04-27T11:23:26.505Z,30.95
2023-04-27T11:24:28.231Z,29.97
2023-04-27T11:25:30.088Z,30.35
2023-04-27T11:26:34.697Z,30.70
2023-04-27T11:27:38.386Z,31.12
2023-04-27T11:28:40.025Z,32.19
2023-04-27T11:29:41.712Z,32.07
2023-04-27T11:30:43.524Z,32.27
2023-04-27T11:31:51.422Z,31.99
2023-04-27T11:32:53.863Z,31.14
2023-04-27T11:33:56.152Z,30.74
2023-04-27T11:34:59.608Z,31.06
2023-04-27T11:36:01.788Z,30.60
2023-04-27T11:38:17.277Z,31.24
2023-04-27T11:39:19.707Z,31.24
2023-04-27T11:40:23.940Z,31.34
2023-04-27T11:41:36.341Z,30.36
2023-04-27T11:42:37.909Z,30.91
2023-04-27T11:43:46.266Z,31.72
2023-04-27T11:44:55.393Z,31.17
2023-04-27T11:45:58.327Z,30.73
2023-04-27T11:46:59.798Z,31.21
2023-04-27T11:48:01.685Z,30.93
2023-04-27T11:49:04.710Z,30.87
2023-04-27T11:50:08.007Z,31.57
2023-04-27T11:51:11.665Z,31.12
2023-04-27T11:52:14.179Z,30.96
2023-04-27T11:53:18.677Z,30.85
2023-04-27T11:54:28.568Z,31.21
2023-04-27T11:55:30.603Z,31.59
2023-04-27T11:56:36.677Z,31.58
2023-04-27T11:57:38.880Z,31.92
2023-04-27T11:58:40.510Z,33.04
2023-04-27T11:59:42.199Z,31.08
2023-04-27T12:00:43.746Z,30.95
2023-04-27T12:01:45.412Z,32.28
2023-04-27T12:02:47.021Z,32.83
2023-04-27T12:03:48.761Z,32.42
2023-04-27T12:04:51.610Z,31.63
2023-04-27T12:05:53.564Z,32.33
2023-04-27T12:06:55.126Z,32.37
2023-04-27T12:07:56.656Z,31.42
2023-04-27T12:08:58.256Z,31.40
2023-04-27T12:10:00.904Z,32.32
2023-04-27T12:11:03.150Z,32.49
2023-04-27T12:12:04.780Z,32.09
2023-04-27T12:13:06.257Z,32.18
2023-04-27T12:14:08.076Z,31.68
2023-04-27T12:15:10.087Z,31.44
2023-04-27T12:16:12.160Z,30.76
2023-04-27T12:17:13.741Z,30.95
2023-04-27T12:18:15.271Z,31.06
2023-04-27T12:19:16.924Z,30.88
2023-04-27T12:20:18.855Z,30.95
2023-04-27T12:21:20.573Z,31.11
2023-04-27T12:22:22.385Z,31.33
2023-04-27T12:23:23.903Z,31.17
2023-04-27T12:24:25.616Z,31.43
2023-04-27T12:25:27.466Z,31.53
2023-04-27T12:26:29.288Z,31.57
2023-04-27T12:27:30.904Z,31.86
2023-04-27T12:28:32.347Z,32.13
2023-04-27T12:29:33.820Z,32.17
2023-04-27T12:30:35.674Z,31.43
2023-04-27T12:31:37.281Z,31.57
2023-04-27T12:32:39.745Z,31.90
2023-04-27T12:33:41.556Z,32.46
2023-04-27T12:34:43.048Z,32.23
2023-04-27T12:35:44.872Z,32.42
2023-04-27T12:36:47.073Z,32.22
2023-04-27T12:37:50.159Z,32.91
2023-04-27T12:38:51.798Z,32.43
2023-04-27T12:39:53.475Z,32.28
2023-04-27T12:40:55.206Z,32.22
2023-04-27T12:41:58.255Z,31.66
2023-04-27T12:43:01.356Z,31.99
2023-04-27T12:44:03.117Z,32.51
2023-04-27T12:45:05.454Z,32.50
2023-04-27T12:46:07.162Z,31.94
2023-04-27T12:47:09.289Z,31.62
2023-04-27T12:48:10.830Z,31.43
2023-04-27T12:49:15.585Z,31.12
2023-04-27T12:50:17.431Z,30.89
2023-04-27T12:51:18.886Z,30.82
2023-04-27T12:52:20.565Z,31.06
2023-04-27T12:53:22.051Z,30.93
2023-04-27T12:54:23.550Z,30.78
2023-04-27T12:56:33.506Z,30.84
2023-04-27T12:57:35.005Z,31.10
2023-04-27T12:58:36.526Z,31.03
2023-04-27T12:59:38.854Z,31.05
2023-04-27T13:00:40.792Z,30.16
2023-04-27T13:01:42.461Z,31.12
2023-04-27T13:02:45.017Z,29.91
2023-04-27T13:03:48.117Z,30.65
2023-04-27T13:04:49.935Z,31.20
2023-04-27T13:05:52.035Z,30.70
2023-04-27T13:06:53.748Z,30.35
2023-04-27T13:07:55.407Z,30.46
2023-04-27T13:08:57.068Z,29.75
2023-04-27T13:09:58.847Z,28.54
2023-04-27T13:11:00.977Z,29.44
2023-04-27T13:12:02.534Z,29.84
2023-04-27T13:13:04.019Z,29.35
2023-04-27T13:14:05.565Z,29.81
2023-04-27T13:15:08.249Z,29.74
2023-04-27T13:16:10.287Z,29.03
2023-04-27T13:17:12.232Z,29.16
2023-04-27T13:18:13.707Z,29.25
2023-04-27T13:19:15.269Z,28.52
2023-04-27T13:20:17.092Z,27.66
2023-04-27T13:21:19.145Z,28.61
2023-04-27T13:22:21.571Z,28.73
2023-04-27T13:23:23.190Z,28.49
2023-04-27T13:24:24.850Z,28.88
2023-04-27T13:25:26.669Z,28.66
2023-04-27T13:26:28.208Z,29.11
2023-04-27T13:27:29.732Z,28.83
2023-04-27T13:28:31.256Z,28.83
2023-04-27T13:29:32.811Z,29.75
2023-04-27T13:30:34.895Z,29.31
2023-04-27T13:31:36.641Z,29.94
2023-04-27T13:32:38.246Z,30.06
2023-04-27T13:33:42.209Z,29.52
2023-04-27T13:34:44.288Z,29.55